createdAt,value
2023-12-14T01:44:38.788Z,126.60
2023-12-14T01:48:02.232Z,113.70
2023-12-14T01:54:16.142Z,111.83
2023-12-14T01:56:53.393Z,92.40
2023-12-14T01:59:26.856Z,87.97
2023-12-14T02:01:57.560Z,97.30
2023-12-14T02:04:46.558Z,90.30
2023-12-14T02:07:22.698Z,97.00
2023-12-14T02:13:55.873Z,81.17
2023-12-14T02:19:44.012Z,69.60
2023-12-14T02:22:45.269Z,65.80
2023-12-14T02:29:17.602Z,58.30
2023-12-14T02:35:11.575Z,90.83
2023-12-14T02:37:54.444Z,70.53
2023-12-14T02:40:50.106Z,77.73
2023-12-14T02:51:58.277Z,102.20
2023-12-14T02:59:06.160Z,97.80
2023-12-14T03:02:29.469Z,106.73
2023-12-14T03:05:11.250Z,110.80
2023-12-14T03:07:46.703Z,123.23
2023-12-14T03:10:25.630Z,154.90
2023-12-14T03:12:59.614Z,158.20
2023-12-14T03:15:49.664Z,206.63
2023-12-14T03:18:27.743Z,107.13
2023-12-14T03:20:55.732Z,107.63
2023-12-14T03:23:56.523Z,139.33
2023-12-14T03:26:33.899Z,165.53
2023-12-14T03:32:05.295Z,141.57
2023-12-14T03:38:30.987Z,243.60
2023-12-14T03:41:02.274Z,187.50
2023-12-14T03:43:30.250Z,119.20
2023-12-14T03:45:58.141Z,111.17
2023-12-14T03:48:44.938Z,130.07
2023-12-14T03:51:19.222Z,132.40
2023-12-14T03:54:35.579Z,120.93
2023-12-14T03:57:52.453Z,165.43
2023-12-14T04:00:19.545Z,216.27
2023-12-14T04:03:11.675Z,217.73
2023-12-14T04:06:13.561Z,243.87
2023-12-14T04:08:58.397Z,239.20
2023-12-14T04:11:52.030Z,261.13
2023-12-14T04:14:26.533Z,345.10
2023-12-14T04:16:53.927Z,329.87
2023-12-14T04:19:21.796Z,376.63
2023-12-14T04:21:54.238Z,338.67
2023-12-14T04:24:22.319Z,380.90
2023-12-14T04:26:49.170Z,158.10
2023-12-14T04:29:19.524Z,161.03
2023-12-14T04:31:54.725Z,160.90
2023-12-14T04:34:24.111Z,221.40
2023-12-14T04:36:51.117Z,217.07
2023-12-14T04:39:18.385Z,271.33
2023-12-14T04:41:45.443Z,201.63
2023-12-14T04:44:14.000Z,154.73
2023-12-14T04:46:41.402Z,174.40
2023-12-14T04:49:08.451Z,213.40
2023-12-14T04:51:35.289Z,238.20
2023-12-14T04:54:02.025Z,200.20
2023-12-14T04:56:29.303Z,243.83
2023-12-14T04:58:56.230Z,286.67
2023-12-14T05:01:23.706Z,298.13
2023-12-14T05:03:57.654Z,275.47
2023-12-14T05:06:31.240Z,178.03
2023-12-14T05:09:11.085Z,177.20
2023-12-14T05:11:38.731Z,156.13
2023-12-14T05:14:06.205Z,117.10
2023-12-14T05:16:33.787Z,164.13
2023-12-14T05:19:02.770Z,114.77
2023-12-14T05:21:30.319Z,158.43
2023-12-14T05:23:57.979Z,156.33
2023-12-14T05:26:25.498Z,205.83
2023-12-14T05:28:52.952Z,180.77
2023-12-14T05:31:19.866Z,240.57
2023-12-14T05:33:47.437Z,208.93
2023-12-14T05:36:15.213Z,196.57
2023-12-14T05:38:42.917Z,168.67
2023-12-14T05:41:10.136Z,211.47
2023-12-14T05:43:37.967Z,293.10
2023-12-14T05:46:05.408Z,276.37
2023-12-14T05:48:32.442Z,236.80
2023-12-14T05:51:01.604Z,149.97
2023-12-14T05:53:28.495Z,205.80
2023-12-14T05:55:55.993Z,189.23
2023-12-14T05:58:23.057Z,156.90
2023-12-14T06:00:50.791Z,185.53
2023-12-14T06:03:18.242Z,157.87
2023-12-14T06:05:46.922Z,223.77
2023-12-14T06:08:15.342Z,271.57
2023-12-14T06:10:45.674Z,199.57
2023-12-14T06:13:12.600Z,151.50
2023-12-14T06:15:39.967Z,126.37
2023-12-14T06:18:07.365Z,134.97
2023-12-14T06:20:34.573Z,137.03
2023-12-14T06:23:04.071Z,145.57
2023-12-14T06:25:31.111Z,216.67
2023-12-14T06:28:01.740Z,303.27
2023-12-14T06:30:28.862Z,365.50
2023-12-14T06:32:55.794Z,372.70
2023-12-14T06:35:23.182Z,259.97
2023-12-14T06:37:55.222Z,227.73
2023-12-14T06:40:26.791Z,162.57
2023-12-14T06:42:54.236Z,107.43
2023-12-14T06:45:21.182Z,139.17
2023-12-14T06:47:48.821Z,135.77
2023-12-14T06:50:17.334Z,128.67
2023-12-14T06:52:45.396Z,141.07
2023-12-14T06:55:15.639Z,143.53
2023-12-14T06:57:57.134Z,146.43
2023-12-14T07:00:35.713Z,166.27
2023-12-14T07:03:07.763Z,215.40
2023-12-14T07:05:38.139Z,166.87
2023-12-14T07:08:05.183Z,178.40
2023-12-14T07:10:32.317Z,160.57
2023-12-14T07:12:59.900Z,153.87
2023-12-14T07:15:36.885Z,189.63
2023-12-14T07:18:10.811Z,252.17
2023-12-14T07:20:42.943Z,202.13
2023-12-14T07:23:16.522Z,211.33
2023-12-14T07:25:43.672Z,203.13
2023-12-14T07:28:25.633Z,158.83
2023-12-14T07:30:57.564Z,112.33
2023-12-14T07:33:24.919Z,122.87
2023-12-14T07:35:52.906Z,129.17
2023-12-14T07:38:25.050Z,137.00
2023-12-14T07:41:02.235Z,115.63
2023-12-14T07:43:32.568Z,117.83
2023-12-14T07:46:00.658Z,95.23
2023-12-14T07:48:31.048Z,92.13
2023-12-14T07:51:02.569Z,105.53
2023-12-14T07:53:37.058Z,99.40
2023-12-14T07:56:05.732Z,115.53
2023-12-14T07:58:35.256Z,120.03
2023-12-14T08:01:02.075Z,101.50
2023-12-14T08:03:28.885Z,86.37
2023-12-14T08:05:55.761Z,100.03
2023-12-14T08:08:23.251Z,115.00
2023-12-14T08:10:50.354Z,98.13
2023-12-14T08:13:17.381Z,110.87
2023-12-14T08:15:44.353Z,115.90
2023-12-14T08:18:11.576Z,123.97
2023-12-14T08:20:39.426Z,158.37
2023-12-14T08:23:06.061Z,148.70
2023-12-14T08:25:33.215Z,139.57
2023-12-14T08:28:02.514Z,129.97
2023-12-14T08:30:31.154Z,129.10
2023-12-14T08:33:00.295Z,132.90
2023-12-14T08:35:27.414Z,116.90
2023-12-14T08:37:54.367Z,151.73
2023-12-14T08:40:21.337Z,98.13
2023-12-14T08:42:49.061Z,105.03
2023-12-14T08:45:16.353Z,98.00
2023-12-14T08:47:44.580Z,117.83
2023-12-14T08:50:11.872Z,92.87
2023-12-14T08:52:39.150Z,96.00
2023-12-14T08:55:06.295Z,98.53
2023-12-14T08:57:33.255Z,85.10
2023-12-14T09:00:00.425Z,102.90
2023-12-14T09:02:27.811Z,88.03
2023-12-14T09:04:55.448Z,104.53
2023-12-14T09:07:22.433Z,107.87
2023-12-14T09:09:49.138Z,118.30
2023-12-14T09:12:15.803Z,103.63
2023-12-14T09:14:42.634Z,112.30
2023-12-14T09:17:11.444Z,109.47
2023-12-14T09:19:39.080Z,104.57
2023-12-14T09:22:06.208Z,84.37
2023-12-14T09:24:33.011Z,89.67
2023-12-14T09:26:59.924Z,87.43
2023-12-14T09:29:26.798Z,83.97
2023-12-14T09:31:54.027Z,70.10
2023-12-14T09:34:21.386Z,73.63
2023-12-14T09:36:48.434Z,58.70
2023-12-14T09:39:16.461Z,65.10
2023-12-14T09:41:43.486Z,54.90
2023-12-14T09:44:10.484Z,68.77
2023-12-14T09:46:38.440Z,68.07
2023-12-14T09:49:08.641Z,66.67
2023-12-14T09:51:37.541Z,70.63
2023-12-14T09:54:05.071Z,63.10
2023-12-14T09:56:32.455Z,63.63
2023-12-14T09:59:01.584Z,64.57
2023-12-14T10:01:29.339Z,66.23
2023-12-14T10:04:08.283Z,65.20
2023-12-14T10:06:34.957Z,67.30
2023-12-14T10:09:01.640Z,80.97
2023-12-14T10:11:28.492Z,76.77
2023-12-14T10:13:55.508Z,62.00
2023-12-14T10:16:32.942Z,59.67
2023-12-14T10:19:00.391Z,69.60
2023-12-14T10:21:28.654Z,48.47
2023-12-14T10:23:56.434Z,65.43
2023-12-14T10:26:25.235Z,64.00
2023-12-14T10:28:53.574Z,69.90
2023-12-14T10:31:23.812Z,72.03
2023-12-14T10:33:51.628Z,60.97
2023-12-14T10:36:25.365Z,68.27
2023-12-14T10:38:57.595Z,55.70
2023-12-14T10:41:28.783Z,75.43
2023-12-14T10:44:17.897Z,62.47
2023-12-14T10:46:45.076Z,63.30
2023-12-14T10:49:12.367Z,70.30
2023-12-14T10:51:45.811Z,70.90
2023-12-14T10:54:15.823Z,78.67
2023-12-14T10:56:43.255Z,62.93
2023-12-14T10:59:10.088Z,68.73
2023-12-14T11:01:40.956Z,68.13
2023-12-14T11:04:14.249Z,70.40
2023-12-14T11:06:42.005Z,70.00
2023-12-14T11:09:11.656Z,64.37
2023-12-14T11:12:01.243Z,67.13
2023-12-14T11:14:28.281Z,63.77
2023-12-14T11:16:55.892Z,67.47
2023-12-14T11:19:22.663Z,57.27
2023-12-14T11:21:58.049Z,58.23
2023-12-14T11:24:25.008Z,61.63
2023-12-14T11:26:51.849Z,64.93
2023-12-14T11:29:22.358Z,69.07
2023-12-14T11:31:49.475Z,62.13
2023-12-14T11:34:16.786Z,53.43
2023-12-14T11:36:43.636Z,63.90
2023-12-14T11:39:10.747Z,67.53
2023-12-14T11:41:39.739Z,68.43
2023-12-14T11:44:06.889Z,66.83
2023-12-14T11:46:34.538Z,68.57
2023-12-14T11:49:04.599Z,65.33
2023-12-14T11:51:32.323Z,68.80
2023-12-14T11:54:01.514Z,41.87
2023-12-14T11:56:29.204Z,66.53
2023-12-14T11:58:56.564Z,57.87
2023-12-14T12:01:24.618Z,57.83
2023-12-14T12:03:51.798Z,63.57
2023-12-14T12:06:23.167Z,67.27
2023-12-14T12:08:50.210Z,56.10
2023-12-14T12:11:20.912Z,63.93
2023-12-14T12:13:55.096Z,71.73
2023-12-14T12:16:22.871Z,55.17
2023-12-14T12:18:51.787Z,61.80
2023-12-14T12:21:18.942Z,60.23
2023-12-14T12:23:45.660Z,61.10
2023-12-14T12:26:12.659Z,61.90
2023-12-14T12:28:40.196Z,62.80
2023-12-14T12:31:07.609Z,61.73
2023-12-14T12:33:39.009Z,64.50
2023-12-14T12:36:06.606Z,64.53
2023-12-14T12:38:34.226Z,65.43
2023-12-14T12:41:01.910Z,63.67
2023-12-14T12:43:28.915Z,50.00
2023-12-14T12:45:56.242Z,61.50
2023-12-14T12:48:28.227Z,59.87
2023-12-14T12:50:55.955Z,51.90
2023-12-14T12:53:23.019Z,57.83
2023-12-14T12:55:49.904Z,62.87
2023-12-14T12:58:16.909Z,44.13
2023-12-14T13:00:44.178Z,49.93
2023-12-14T13:03:12.005Z,47.60
2023-12-14T13:05:38.926Z,59.30
2023-12-14T13:08:05.791Z,49.20
2023-12-14T13:10:33.332Z,58.20
2023-12-14T13:13:01.176Z,55.20
2023-12-14T13:15:30.851Z,54.10
2023-12-14T13:17:58.411Z,52.23
2023-12-14T13:20:25.812Z,60.57
2023-12-14T13:22:54.567Z,39.87
2023-12-14T13:25:24.353Z,52.13
2023-12-14T13:27:51.106Z,81.63
2023-12-14T13:30:19.584Z,68.73
2023-12-14T13:32:47.020Z,75.60
2023-12-14T13:35:14.710Z,87.20
2023-12-14T13:37:42.833Z,69.00
2023-12-14T13:40:12.782Z,112.97
2023-12-14T13:42:50.596Z,92.73
2023-12-14T13:45:27.840Z,73.07
2023-12-14T13:47:54.949Z,61.37
2023-12-14T13:50:22.928Z,54.03
2023-12-14T13:52:49.962Z,46.10
2023-12-14T13:55:17.216Z,55.40
2023-12-14T13:57:44.175Z,67.40
2023-12-14T14:00:12.703Z,72.13
2023-12-14T14:02:39.768Z,70.30
2023-12-14T14:05:06.665Z,64.20
2023-12-14T14:07:33.932Z,83.03
2023-12-14T14:10:01.287Z,73.53
2023-12-14T14:12:28.287Z,64.60
2023-12-14T14:14:55.009Z,64.23
2023-12-14T14:17:22.588Z,53.73
2023-12-14T14:19:49.985Z,62.33
2023-12-14T14:22:16.905Z,78.03
2023-12-14T14:24:43.598Z,56.03
2023-12-14T14:27:10.260Z,63.60
2023-12-14T14:29:37.745Z,45.90
2023-12-14T14:32:05.204Z,31.97
2023-12-14T14:34:31.901Z,39.77
2023-12-14T14:36:58.632Z,46.67
2023-12-14T14:39:26.048Z,54.80
2023-12-14T14:41:53.754Z,41.70
2023-12-14T14:44:21.051Z,41.17
2023-12-14T14:46:48.012Z,43.17
2023-12-14T14:49:14.791Z,54.13
2023-12-14T14:51:41.723Z,32.90
2023-12-14T14:54:09.307Z,34.10
2023-12-14T14:56:36.823Z,28.70
2023-12-14T14:59:06.113Z,25.57
2023-12-14T15:01:32.842Z,31.47
2023-12-14T15:04:00.610Z,32.93
2023-12-14T15:06:27.660Z,29.20
2023-12-14T15:08:54.639Z,29.23
2023-12-14T15:11:21.435Z,25.50
2023-12-14T15:13:48.265Z,30.53
2023-12-14T15:16:15.303Z,31.60
2023-12-14T15:18:42.759Z,33.60
2023-12-14T15:21:16.498Z,33.30
2023-12-14T15:23:45.323Z,40.13
2023-12-14T15:26:12.336Z,28.90
2023-12-14T15:28:39.427Z,32.37
2023-12-14T15:31:06.234Z,31.93
2023-12-14T15:33:33.045Z,34.57
2023-12-14T15:36:00.843Z,33.60
2023-12-14T15:38:29.726Z,27.77
2023-12-14T15:40:56.658Z,30.50
2023-12-14T15:43:23.560Z,29.30
2023-12-14T15:45:50.403Z,27.93
2023-12-14T15:48:17.146Z,29.20
2023-12-14T15:50:43.819Z,35.90
2023-12-14T15:53:11.724Z,29.20
2023-12-14T15:55:39.149Z,23.83
2023-12-14T15:58:06.260Z,27.03
2023-12-14T16:00:34.413Z,33.17
2023-12-14T16:03:01.565Z,23.83
2023-12-14T16:05:28.362Z,28.77
2023-12-14T16:07:55.894Z,33.23
2023-12-14T16:10:23.648Z,37.53
2023-12-14T16:12:52.185Z,41.80
2023-12-14T16:15:19.526Z,37.10
2023-12-14T16:17:49.018Z,44.30
2023-12-14T16:20:38.786Z,38.13
2023-12-14T16:23:41.866Z,40.33
2023-12-14T16:26:13.017Z,44.80
2023-12-14T16:28:47.718Z,39.43
2023-12-14T16:31:20.104Z,38.00
2023-12-14T16:33:49.750Z,37.10
2023-12-14T16:36:17.099Z,46.13
2023-12-14T16:38:47.467Z,40.73
2023-12-14T16:41:23.877Z,49.03
2023-12-14T16:44:17.434Z,42.57
2023-12-14T16:46:48.473Z,34.50
2023-12-14T16:49:19.717Z,38.33
2023-12-14T16:52:05.525Z,42.43
2023-12-14T16:55:07.664Z,33.90
2023-12-14T16:57:59.330Z,38.57
2023-12-14T17:00:31.007Z,37.53
2023-12-14T17:02:58.918Z,58.87
2023-12-14T17:06:03.636Z,37.33
2023-12-14T17:20:21.538Z,39.27
2023-12-14T17:23:04.120Z,50.10
2023-12-14T17:25:40.055Z,45.50
2023-12-14T17:31:21.953Z,44.60
2023-12-14T17:34:10.340Z,58.00
2023-12-14T17:39:59.036Z,40.63
2023-12-14T17:58:01.575Z,39.17
2023-12-14T18:14:12.694Z,40.80
2023-12-14T18:24:19.036Z,36.07
2023-12-14T18:27:04.932Z,29.40
2023-12-14T18:34:09.741Z,47.83
2023-12-14T18:37:52.928Z,41.13
2023-12-14T18:45:01.349Z,39.37
2023-12-14T18:48:02.434Z,38.80
2023-12-14T18:50:38.920Z,45.30
2023-12-14T18:53:25.813Z,53.97
2023-12-14T18:56:05.574Z,45.90
2023-12-14T19:11:30.210Z,39.77
2023-12-14T19:14:45.335Z,39.90
2023-12-14T19:17:34.599Z,36.37
2023-12-14T19:20:24.675Z,44.83
2023-12-14T19:23:31.722Z,40.83
2023-12-14T19:26:52.586Z,43.57
2023-12-14T19:48:28.509Z,47.57
2023-12-14T19:51:46.270Z,50.73
2023-12-14T19:54:45.588Z,59.07
2023-12-14T20:01:59.098Z,46.40
2023-12-14T20:09:57.218Z,47.30
2023-12-14T20:17:29.038Z,54.87
2023-12-14T20:20:26.545Z,56.13
2023-12-14T20:26:50.251Z,65.50
2023-12-14T20:30:30.533Z,72.43
2023-12-14T20:33:46.829Z,63.23
2023-12-14T20:36:26.664Z,70.40
2023-12-14T20:39:37.661Z,66.77
2023-12-14T20:43:59.228Z,70.37
2023-12-14T20:51:28.511Z,57.77
2023-12-14T21:05:43.444Z,68.87
2023-12-14T21:18:46.887Z,69.07
2023-12-14T21:28:19.181Z,70.00
2023-12-14T21:31:34.637Z,86.53
2023-12-14T21:38:48.991Z,79.90
2023-12-14T21:49:36.879Z,71.53
2023-12-14T21:52:52.107Z,83.50
2023-12-14T21:56:11.863Z,98.60
2023-12-14T21:59:49.461Z,76.20
2023-12-14T22:02:20.518Z,75.03
2023-12-14T22:04:48.181Z,72.83
2023-12-14T22:07:23.419Z,65.83
2023-12-14T22:16:17.919Z,78.33
2023-12-14T22:22:43.584Z,83.80
2023-12-14T22:25:18.112Z,75.33
2023-12-14T22:28:09.669Z,62.63
2023-12-14T22:35:48.134Z,57.97
2023-12-14T22:38:26.265Z,68.30
2023-12-14T22:41:00.732Z,53.50
2023-12-14T22:43:36.063Z,67.23
2023-12-14T22:52:58.270Z,58.53
2023-12-14T22:55:58.108Z,54.03
2023-12-14T22:58:31.518Z,46.90
2023-12-14T23:01:23.084Z,57.00
2023-12-14T23:08:28.613Z,55.63
2023-12-14T23:15:19.180Z,59.73
2023-12-14T23:17:55.324Z,64.03
2023-12-14T23:20:45.284Z,55.03
2023-12-14T23:24:16.531Z,51.60
2023-12-14T23:30:32.747Z,55.13
2023-12-14T23:37:02.324Z,53.17
2023-12-14T23:40:01.251Z,65.40
2023-12-14T23:43:02.139Z,51.70
2023-12-14T23:46:54.135Z,64.67
2023-12-14T23:53:53.943Z,55.40
2023-12-14T23:56:30.866Z,55.53
